createdAt,value
2022-09-27T00:01:56.095Z,11.30
2022-09-27T00:04:24.351Z,11.30
2022-09-27T00:06:52.803Z,11.30
2022-09-27T00:09:21.331Z,11.30
2022-09-27T00:11:50.094Z,11.20
2022-09-27T00:14:19.853Z,11.20
2022-09-27T00:16:49.773Z,11.30
2022-09-27T00:19:21.848Z,11.30
2022-09-27T00:21:50.886Z,11.40
2022-09-27T00:24:22.178Z,11.40
2022-09-27T00:26:51.437Z,11.30
2022-09-27T00:29:21.096Z,11.30
2022-09-27T00:31:50.807Z,11.30
2022-09-27T00:34:23.612Z,11.40
2022-09-27T00:36:53.510Z,11.30
2022-09-27T00:39:22.059Z,11.40
2022-09-27T00:41:50.641Z,11.40
2022-09-27T00:45:07.368Z,11.30
2022-09-27T00:47:45.025Z,11.30
2022-09-27T00:50:27.494Z,11.30
2022-09-27T00:53:07.707Z,11.30
2022-09-27T00:55:42.859Z,11.30
2022-09-27T00:58:15.566Z,11.30
2022-09-27T01:00:51.920Z,11.40
2022-09-27T01:03:31.818Z,11.30
2022-09-27T01:06:02.699Z,11.40
2022-09-27T01:08:31.155Z,11.40
2022-09-27T01:11:19.665Z,11.40
2022-09-27T01:14:05.223Z,11.40
2022-09-27T01:16:45.260Z,11.30
2022-09-27T01:19:36.971Z,11.40
2022-09-27T01:22:13.155Z,11.40
2022-09-27T01:25:12.986Z,11.30
2022-09-27T01:28:13.839Z,11.30
2022-09-27T01:30:51.252Z,11.30
2022-09-27T01:33:37.070Z,11.30
2022-09-27T01:36:28.976Z,11.20
2022-09-27T01:39:10.486Z,11.30
2022-09-27T01:42:12.810Z,11.20
2022-09-27T01:44:53.681Z,11.20
2022-09-27T01:47:39.399Z,11.20
2022-09-27T01:50:41.514Z,11.20
2022-09-27T01:53:16.017Z,11.10
2022-09-27T01:56:10.677Z,11.20
2022-09-27T01:59:08.014Z,11.20
2022-09-27T02:01:40.485Z,11.10
2022-09-27T02:04:16.456Z,11.20
2022-09-27T02:07:21.379Z,11.20
2022-09-27T02:09:58.114Z,11.30
2022-09-27T02:12:45.243Z,11.20
2022-09-27T02:15:16.754Z,11.30
2022-09-27T02:18:01.488Z,11.20
2022-09-27T02:20:38.614Z,11.20
2022-09-27T02:23:20.103Z,11.20
2022-09-27T02:25:58.734Z,11.30
2022-09-27T02:28:32.485Z,11.30
2022-09-27T02:31:01.172Z,11.30
2022-09-27T02:33:43.454Z,11.20
2022-09-27T02:36:13.194Z,11.30
2022-09-27T02:38:42.621Z,11.20
2022-09-27T02:41:16.272Z,11.30
2022-09-27T02:43:49.608Z,11.30
2022-09-27T02:46:54.531Z,11.30
2022-09-27T02:49:46.045Z,11.30
2022-09-27T02:52:52.689Z,11.30
2022-09-27T02:55:35.788Z,11.30
2022-09-27T02:58:32.980Z,11.20
2022-09-27T03:01:32.918Z,11.20
2022-09-27T03:04:33.278Z,11.30
2022-09-27T03:07:03.152Z,11.30
2022-09-27T03:09:46.105Z,11.30
2022-09-27T03:12:20.628Z,11.30
2022-09-27T03:14:49.016Z,11.30
2022-09-27T03:17:37.754Z,11.20
2022-09-27T03:20:24.671Z,11.20
2022-09-27T03:23:00.782Z,11.20
2022-09-27T03:25:29.085Z,11.20
2022-09-27T03:27:58.909Z,11.20
2022-09-27T03:30:27.476Z,11.20
2022-09-27T03:32:56.113Z,11.20
2022-09-27T03:35:43.871Z,11.20
2022-09-27T03:38:12.636Z,11.20
2022-09-27T03:40:41.744Z,11.20
2022-09-27T03:43:12.609Z,11.20
2022-09-27T03:45:41.346Z,11.20
2022-09-27T03:48:12.611Z,11.30
2022-09-27T03:50:41.093Z,11.20
2022-09-27T03:53:10.027Z,11.20
2022-09-27T03:55:38.419Z,11.20
2022-09-27T03:58:07.088Z,11.10
2022-09-27T04:00:37.234Z,11.20
2022-09-27T04:03:06.123Z,11.20
2022-09-27T04:05:55.097Z,11.20
2022-09-27T04:08:31.268Z,11.20
2022-09-27T04:10:59.667Z,11.10
2022-09-27T04:13:28.380Z,11.20
2022-09-27T04:15:59.498Z,11.20
2022-09-27T04:18:48.045Z,11.20
2022-09-27T04:21:36.977Z,11.20
2022-09-27T04:24:06.628Z,11.20
2022-09-27T04:26:37.962Z,11.20
2022-09-27T04:29:16.058Z,11.10
2022-09-27T04:31:52.155Z,11.20
2022-09-27T04:34:46.066Z,11.20
2022-09-27T04:37:15.800Z,11.20
2022-09-27T04:39:50.285Z,11.20
2022-09-27T04:42:19.571Z,11.20
2022-09-27T04:44:47.778Z,11.20
2022-09-27T04:47:18.398Z,11.20
2022-09-27T04:49:46.737Z,11.30
2022-09-27T04:52:15.574Z,11.30
2022-09-27T04:54:44.110Z,11.30
2022-09-27T04:57:14.510Z,11.30
2022-09-27T04:59:44.245Z,11.30
2022-09-27T05:02:13.830Z,11.30
2022-09-27T05:05:12.256Z,11.30
2022-09-27T05:07:43.762Z,11.30
2022-09-27T05:10:17.507Z,11.20
2022-09-27T05:12:45.865Z,11.30
2022-09-27T05:15:16.862Z,11.30
2022-09-27T05:17:54.878Z,11.20
2022-09-27T05:21:02.964Z,11.20
2022-09-27T05:23:37.791Z,11.20
2022-09-27T05:26:06.802Z,11.20
2022-09-27T05:28:36.068Z,11.20
2022-09-27T05:31:04.501Z,11.20
2022-09-27T05:33:34.290Z,11.20
2022-09-27T05:36:39.220Z,11.30
2022-09-27T05:39:07.924Z,11.20
2022-09-27T05:41:36.946Z,11.30
2022-09-27T05:44:05.924Z,11.40
2022-09-27T05:46:35.016Z,11.30
2022-09-27T05:49:03.449Z,11.40
2022-09-27T05:51:31.811Z,11.40
2022-09-27T05:54:01.552Z,11.40
2022-09-27T05:56:30.354Z,11.40
2022-09-27T05:59:17.311Z,11.40
2022-09-27T06:02:04.345Z,11.40
2022-09-27T06:04:55.926Z,11.40
2022-09-27T06:07:44.288Z,11.40
2022-09-27T06:10:21.087Z,11.40
2022-09-27T06:12:50.218Z,11.40
2022-09-27T06:15:39.208Z,11.50
2022-09-27T06:18:11.124Z,11.50
2022-09-27T06:20:42.926Z,11.50
2022-09-27T06:23:14.218Z,11.60
2022-09-27T06:25:44.170Z,11.50
2022-09-27T06:28:24.595Z,11.50
2022-09-27T06:30:56.902Z,11.60
2022-09-27T06:33:40.986Z,11.60
2022-09-27T06:36:10.023Z,11.60
2022-09-27T06:38:40.534Z,11.60
2022-09-27T06:41:15.225Z,11.60
2022-09-27T06:44:09.763Z,11.60
2022-09-27T06:47:12.755Z,11.60
2022-09-27T06:49:59.883Z,11.60
2022-09-27T06:52:28.295Z,11.60
2022-09-27T06:54:56.673Z,11.60
2022-09-27T06:57:40.175Z,11.60
2022-09-27T07:00:27.499Z,11.50
2022-09-27T07:03:15.407Z,11.40
2022-09-27T07:06:06.199Z,11.40
2022-09-27T07:08:44.801Z,11.50
2022-09-27T07:11:13.173Z,11.70
2022-09-27T07:13:43.584Z,11.50
2022-09-27T07:16:14.118Z,11.60
2022-09-27T07:18:43.719Z,11.50
2022-09-27T07:21:12.911Z,11.40
2022-09-27T07:23:41.075Z,11.40
2022-09-27T07:26:11.510Z,11.40
2022-09-27T07:28:42.089Z,11.40
2022-09-27T07:31:14.774Z,11.30
2022-09-27T07:33:43.717Z,11.30
2022-09-27T07:36:14.467Z,11.40
2022-09-27T07:38:44.822Z,11.40
2022-09-27T07:41:15.152Z,11.40
2022-09-27T07:43:46.841Z,11.50
2022-09-27T07:46:16.269Z,11.50
2022-09-27T07:48:53.261Z,11.60
2022-09-27T07:51:40.081Z,11.80
2022-09-27T07:54:29.344Z,11.60
2022-09-27T07:57:36.143Z,11.70
2022-09-27T08:00:10.380Z,11.80
2022-09-27T08:02:41.729Z,11.70
2022-09-27T08:05:12.051Z,11.80
2022-09-27T08:07:41.817Z,11.80
2022-09-27T08:10:10.970Z,11.80
2022-09-27T08:12:39.643Z,11.80
2022-09-27T08:15:11.108Z,11.90
2022-09-27T08:17:39.327Z,12.00
2022-09-27T08:20:18.444Z,12.10
2022-09-27T08:23:07.790Z,11.90
2022-09-27T08:25:43.481Z,12.00
2022-09-27T08:28:32.668Z,12.00
2022-09-27T08:31:19.205Z,11.90
2022-09-27T08:33:51.134Z,11.90
2022-09-27T08:36:20.044Z,11.90
2022-09-27T08:38:50.823Z,11.90
2022-09-27T08:41:36.231Z,11.90
2022-09-27T08:44:18.064Z,11.90
2022-09-27T08:47:12.302Z,11.80
2022-09-27T08:49:48.497Z,11.70
2022-09-27T08:52:23.870Z,11.60
2022-09-27T08:54:53.573Z,11.60
2022-09-27T08:57:25.819Z,11.60
2022-09-27T09:00:06.267Z,11.50
2022-09-27T09:02:38.249Z,11.40
2022-09-27T09:05:13.217Z,11.40
2022-09-27T09:08:13.862Z,11.50
2022-09-27T09:11:15.074Z,11.40
2022-09-27T09:14:32.898Z,11.40
2022-09-27T09:17:17.332Z,11.30
2022-09-27T09:20:22.824Z,11.40
2022-09-27T09:23:25.657Z,11.20
2022-09-27T09:26:04.398Z,11.20
2022-09-27T09:28:53.205Z,11.10
2022-09-27T09:31:35.656Z,11.10
2022-09-27T09:34:15.436Z,11.20
2022-09-27T09:36:52.645Z,11.20
2022-09-27T09:39:27.398Z,11.30
2022-09-27T09:42:08.573Z,11.20
2022-09-27T09:44:51.563Z,11.20
2022-09-27T09:47:32.651Z,11.20
2022-09-27T09:50:07.984Z,11.20
2022-09-27T09:52:46.510Z,11.30
2022-09-27T09:55:22.058Z,11.30
2022-09-27T09:58:05.300Z,11.40
2022-09-27T10:00:44.240Z,11.40
2022-09-27T10:03:12.627Z,11.50
2022-09-27T10:05:45.768Z,11.50
2022-09-27T10:08:22.495Z,11.40
2022-09-27T10:11:00.039Z,11.40
2022-09-27T10:13:57.705Z,11.50
2022-09-27T10:16:29.124Z,11.50
2022-09-27T10:19:03.902Z,11.50
2022-09-27T10:21:34.964Z,11.60
2022-09-27T10:24:17.838Z,11.50
2022-09-27T10:27:01.668Z,11.50
2022-09-27T10:29:37.855Z,11.50
2022-09-27T10:32:27.205Z,11.60
2022-09-27T10:35:37.839Z,11.60
2022-09-27T10:38:24.971Z,11.60
2022-09-27T10:41:22.835Z,11.70
2022-09-27T10:43:51.977Z,11.80
2022-09-27T10:46:33.854Z,11.90
2022-09-27T10:49:29.830Z,12.00
2022-09-27T10:52:04.766Z,12.10
2022-09-27T10:54:38.616Z,12.00
2022-09-27T10:57:20.794Z,12.00
2022-09-27T10:59:56.733Z,12.10
2022-09-27T11:02:30.383Z,12.10
2022-09-27T11:05:35.771Z,12.00
2022-09-27T11:08:26.700Z,11.90
2022-09-27T11:11:08.914Z,11.80
2022-09-27T11:13:40.526Z,11.90
2022-09-27T11:16:35.298Z,12.20
2022-09-27T11:19:20.713Z,12.10
2022-09-27T11:22:01.148Z,11.80
2022-09-27T11:25:04.008Z,11.90
2022-09-27T11:27:52.043Z,11.90
2022-09-27T11:30:34.858Z,11.90
2022-09-27T11:33:52.052Z,11.80
2022-09-27T11:36:40.273Z,11.80
2022-09-27T11:39:23.969Z,11.90
2022-09-27T11:42:24.358Z,12.00
2022-09-27T11:45:41.005Z,12.00
2022-09-27T11:48:22.311Z,12.00
2022-09-27T11:51:06.494Z,12.10
2022-09-27T11:54:05.173Z,12.10
2022-09-27T11:56:47.139Z,12.10
2022-09-27T12:00:05.766Z,12.20
2022-09-27T12:03:28.214Z,12.40
2022-09-27T12:06:08.886Z,12.30
2022-09-27T12:08:59.574Z,12.30
2022-09-27T12:11:37.119Z,12.40
2022-09-27T12:14:15.133Z,12.40
2022-09-27T12:16:45.201Z,12.40
2022-09-27T12:19:22.771Z,12.50
2022-09-27T12:22:06.801Z,12.40
2022-09-27T12:24:40.354Z,12.40
2022-09-27T12:27:41.611Z,12.30
2022-09-27T12:30:15.666Z,12.30
2022-09-27T12:33:02.121Z,12.40
2022-09-27T12:35:40.928Z,12.50
2022-09-27T12:38:18.134Z,12.60
2022-09-27T12:40:50.553Z,12.70
2022-09-27T12:43:24.692Z,12.60
2022-09-27T12:46:14.426Z,12.60
2022-09-27T12:48:53.341Z,12.50
2022-09-27T12:51:24.853Z,12.60
2022-09-27T12:54:32.308Z,12.70
2022-09-27T12:57:17.983Z,12.60
2022-09-27T13:00:02.383Z,12.50
2022-09-27T13:03:18.132Z,12.50
2022-09-27T13:06:42.274Z,12.50
2022-09-27T13:09:58.071Z,12.50
2022-09-27T13:12:30.326Z,12.40
2022-09-27T13:15:06.653Z,12.40
2022-09-27T13:17:54.154Z,12.60
2022-09-27T13:20:44.247Z,12.40
2022-09-27T13:23:52.735Z,12.30
2022-09-27T13:26:48.843Z,12.30
2022-09-27T13:29:33.862Z,12.30
2022-09-27T13:32:23.657Z,12.30
2022-09-27T13:35:19.322Z,12.40
2022-09-27T13:37:58.947Z,12.40
2022-09-27T13:40:36.295Z,12.50
2022-09-27T13:43:42.501Z,12.60
2022-09-27T13:46:27.967Z,12.70
2022-09-27T13:49:02.388Z,12.70
2022-09-27T13:51:53.238Z,12.70
2022-09-27T13:54:50.387Z,12.70
2022-09-27T13:57:50.874Z,12.60
2022-09-27T14:00:26.341Z,12.60
2022-09-27T14:03:17.399Z,12.60
2022-09-27T14:05:57.982Z,12.60
2022-09-27T14:08:32.986Z,12.60
2022-09-27T14:11:05.324Z,12.50
2022-09-27T14:13:35.954Z,12.50
2022-09-27T14:16:10.892Z,12.50
2022-09-27T14:18:50.601Z,12.60
2022-09-27T14:21:32.176Z,12.70
2022-09-27T14:24:46.521Z,12.60
2022-09-27T14:27:22.886Z,12.60
2022-09-27T14:30:01.772Z,12.50
2022-09-27T14:32:36.865Z,12.40
2022-09-27T14:35:34.454Z,12.30
2022-09-27T14:38:26.314Z,12.30
2022-09-27T14:41:04.828Z,12.30
2022-09-27T14:43:33.168Z,12.40
2022-09-27T14:46:06.855Z,12.50
2022-09-27T14:48:37.720Z,12.40
2022-09-27T14:51:20.835Z,12.40
2022-09-27T14:53:56.519Z,12.40
2022-09-27T14:56:30.207Z,12.50
2022-09-27T14:59:05.692Z,12.50
2022-09-27T15:01:35.360Z,12.50
2022-09-27T15:04:10.816Z,12.50
2022-09-27T15:06:39.967Z,12.50
2022-09-27T15:09:13.363Z,12.50
2022-09-27T15:11:42.941Z,12.50
2022-09-27T15:14:17.494Z,12.50
2022-09-27T15:16:51.633Z,12.70
2022-09-27T15:19:26.937Z,12.50
2022-09-27T15:21:57.238Z,12.60
2022-09-27T15:24:40.488Z,12.50
2022-09-27T15:27:18.067Z,12.50
2022-09-27T15:29:51.238Z,12.50
2022-09-27T15:32:24.012Z,12.40
2022-09-27T15:34:53.260Z,12.30
2022-09-27T15:37:35.345Z,12.40
2022-09-27T15:40:55.684Z,12.40
2022-09-27T15:43:31.771Z,12.40
2022-09-27T15:46:03.927Z,12.40
2022-09-27T15:48:37.524Z,12.30
2022-09-27T15:51:43.533Z,12.30
2022-09-27T15:54:14.026Z,12.30
2022-09-27T15:56:43.591Z,12.40
2022-09-27T15:59:21.574Z,12.30
2022-09-27T16:01:52.784Z,12.20
2022-09-27T16:04:22.643Z,12.10
2022-09-27T16:06:51.383Z,12.00
2022-09-27T16:09:22.122Z,12.00
2022-09-27T16:11:51.731Z,11.90
2022-09-27T16:14:20.553Z,11.80
2022-09-27T16:16:52.562Z,11.80
2022-09-27T16:19:22.323Z,11.70
2022-09-27T16:21:50.861Z,11.60
2022-09-27T16:24:18.985Z,11.60
2022-09-27T16:26:47.106Z,11.60
2022-09-27T16:29:17.191Z,11.60
2022-09-27T16:31:46.352Z,11.50
2022-09-27T16:34:14.908Z,11.50
2022-09-27T16:36:44.405Z,11.50
2022-09-27T16:39:14.499Z,11.50
2022-09-27T16:41:43.559Z,11.60
2022-09-27T16:44:17.156Z,11.50
2022-09-27T16:46:47.169Z,11.40
2022-09-27T16:49:29.434Z,11.40
2022-09-27T16:52:02.416Z,11.40
2022-09-27T16:54:32.546Z,11.40
2022-09-27T16:57:01.440Z,11.40
2022-09-27T16:59:29.716Z,11.30
2022-09-27T17:01:58.539Z,11.20
2022-09-27T17:04:28.170Z,11.20
2022-09-27T17:06:57.936Z,11.30
2022-09-27T17:09:26.298Z,11.30
2022-09-27T17:11:56.228Z,11.20
2022-09-27T17:14:24.567Z,11.20
2022-09-27T17:16:53.071Z,11.20
2022-09-27T17:19:21.930Z,11.10
2022-09-27T17:21:50.217Z,11.20
2022-09-27T17:24:19.616Z,11.20
2022-09-27T17:26:47.651Z,11.20
2022-09-27T17:29:16.237Z,11.20
2022-09-27T17:31:46.045Z,11.30
2022-09-27T17:34:15.729Z,11.30
2022-09-27T17:36:48.305Z,11.20
2022-09-27T17:39:21.096Z,11.30
2022-09-27T17:41:50.379Z,11.20
2022-09-27T17:44:19.822Z,11.20
2022-09-27T17:47:08.250Z,11.20
2022-09-27T17:49:54.727Z,11.10
2022-09-27T17:52:23.467Z,11.10
2022-09-27T17:54:55.561Z,11.10
2022-09-27T17:57:24.565Z,11.10
2022-09-27T17:59:53.542Z,11.00
2022-09-27T18:02:22.007Z,11.00
2022-09-27T18:04:50.187Z,10.90
2022-09-27T18:07:19.653Z,10.80
2022-09-27T18:09:47.808Z,10.80
2022-09-27T18:12:17.393Z,10.80
2022-09-27T18:14:45.769Z,10.80
2022-09-27T18:17:14.099Z,10.70
2022-09-27T18:19:42.191Z,10.70
2022-09-27T18:22:10.283Z,10.70
2022-09-27T18:24:38.426Z,10.80
2022-09-27T18:27:06.564Z,10.80
2022-09-27T18:29:36.105Z,10.70
2022-09-27T18:32:04.215Z,10.70
2022-09-27T18:34:32.251Z,10.70
2022-09-27T18:37:00.276Z,10.70
2022-09-27T18:39:28.444Z,10.80
2022-09-27T18:41:56.612Z,10.70
2022-09-27T18:44:24.969Z,10.70
2022-09-27T18:46:54.464Z,10.70
2022-09-27T18:49:26.909Z,10.70
2022-09-27T18:51:56.670Z,10.70
2022-09-27T18:54:24.763Z,10.70
2022-09-27T18:56:53.317Z,10.70
2022-09-27T18:59:23.812Z,10.70
2022-09-27T19:01:53.674Z,10.60
2022-09-27T19:04:24.617Z,10.60
2022-09-27T19:06:53.994Z,10.50
2022-09-27T19:09:22.439Z,10.60
2022-09-27T19:11:50.625Z,10.60
2022-09-27T19:14:22.297Z,10.60
2022-09-27T19:16:51.987Z,10.60
2022-09-27T19:19:22.039Z,10.60
2022-09-27T19:21:50.383Z,10.50
2022-09-27T19:24:18.908Z,10.50
2022-09-27T19:26:47.199Z,10.50
2022-09-27T19:29:15.470Z,10.50
2022-09-27T19:31:43.889Z,10.50
2022-09-27T19:34:12.178Z,10.50
2022-09-27T19:36:41.945Z,10.50
2022-09-27T19:39:10.200Z,10.50
2022-09-27T19:41:38.609Z,10.50
2022-09-27T19:44:06.735Z,10.40
2022-09-27T19:46:34.950Z,10.40
2022-09-27T19:49:03.158Z,10.40
2022-09-27T19:51:32.409Z,10.40
2022-09-27T19:54:02.482Z,10.40
2022-09-27T19:56:31.120Z,10.40
2022-09-27T19:59:01.680Z,10.50
2022-09-27T20:01:32.467Z,10.40
2022-09-27T20:04:00.744Z,10.40
2022-09-27T20:06:28.993Z,10.40
2022-09-27T20:08:57.137Z,10.40
2022-09-27T20:11:29.356Z,10.40
2022-09-27T20:13:59.172Z,10.40
2022-09-27T20:16:28.514Z,10.40
2022-09-27T20:18:59.180Z,10.40
2022-09-27T20:21:32.401Z,10.40
2022-09-27T20:24:02.842Z,10.40
2022-09-27T20:26:34.506Z,10.30
2022-09-27T20:29:04.227Z,10.30
2022-09-27T20:31:36.725Z,10.40
2022-09-27T20:34:06.300Z,10.40
2022-09-27T20:36:37.298Z,10.30
2022-09-27T20:39:07.734Z,10.30
2022-09-27T20:41:39.810Z,10.30
2022-09-27T20:44:10.972Z,10.30
2022-09-27T20:46:41.149Z,10.30
2022-09-27T20:49:12.312Z,10.30
2022-09-27T20:51:43.446Z,10.30
2022-09-27T20:54:13.593Z,10.30
2022-09-27T20:56:46.132Z,10.30
2022-09-27T20:59:17.799Z,10.30
2022-09-27T21:01:48.670Z,10.30
2022-09-27T21:04:19.392Z,10.40
2022-09-27T21:06:47.821Z,10.40
2022-09-27T21:09:18.947Z,10.30
2022-09-27T21:11:51.606Z,10.40
2022-09-27T21:14:19.817Z,10.40
2022-09-27T21:16:49.023Z,10.40
2022-09-27T21:19:17.699Z,10.40
2022-09-27T21:21:46.055Z,10.30
2022-09-27T21:24:14.161Z,10.40
2022-09-27T21:26:42.381Z,10.40
2022-09-27T21:29:14.481Z,10.40
2022-09-27T21:31:42.855Z,10.40
2022-09-27T21:34:11.029Z,10.30
2022-09-27T21:36:39.976Z,10.30
2022-09-27T21:39:10.162Z,10.20
2022-09-27T21:41:39.371Z,10.20
2022-09-27T21:44:08.923Z,10.10
2022-09-27T21:46:41.788Z,10.10
2022-09-27T21:49:10.966Z,10.10
2022-09-27T21:51:41.530Z,10.10
2022-09-27T21:54:13.534Z,10.10
2022-09-27T21:56:43.946Z,10.10
2022-09-27T21:59:15.248Z,10.00
2022-09-27T22:01:47.035Z,10.10
2022-09-27T22:04:15.962Z,10.00
2022-09-27T22:06:44.916Z,10.00
2022-09-27T22:09:17.637Z,9.90
2022-09-27T22:11:47.634Z,9.90
2022-09-27T22:14:19.733Z,9.90
2022-09-27T22:16:49.866Z,9.90
2022-09-27T22:19:18.299Z,9.90
2022-09-27T22:21:47.162Z,9.90
2022-09-27T22:24:18.879Z,9.90
2022-09-27T22:26:51.765Z,9.80
2022-09-27T22:29:20.195Z,9.70
2022-09-27T22:31:49.727Z,9.70
2022-09-27T22:34:28.575Z,9.70
2022-09-27T22:36:58.237Z,9.60
2022-09-27T22:39:26.414Z,9.60
2022-09-27T22:41:54.603Z,9.60
2022-09-27T22:44:22.801Z,9.50
2022-09-27T22:46:52.266Z,9.50
2022-09-27T22:49:20.430Z,9.50
2022-09-27T22:51:48.487Z,9.40
2022-09-27T22:54:16.625Z,9.40
2022-09-27T22:56:44.797Z,9.40
2022-09-27T22:59:13.079Z,9.40
2022-09-27T23:01:41.461Z,9.40
2022-09-27T23:04:11.989Z,9.40
2022-09-27T23:06:40.118Z,9.40
2022-09-27T23:09:09.443Z,9.40
2022-09-27T23:11:38.449Z,9.30
2022-09-27T23:14:07.107Z,9.30
2022-09-27T23:16:36.737Z,9.30
2022-09-27T23:19:06.161Z,9.20
2022-09-27T23:21:35.656Z,9.20
2022-09-27T23:24:04.030Z,9.30
2022-09-27T23:26:32.154Z,9.30
2022-09-27T23:29:02.581Z,9.30
2022-09-27T23:31:33.542Z,9.30
2022-09-27T23:34:05.329Z,9.30
2022-09-27T23:36:35.314Z,9.30
2022-09-27T23:39:03.589Z,9.30
2022-09-27T23:41:31.724Z,9.30
2022-09-27T23:43:59.873Z,9.30
2022-09-27T23:46:28.658Z,9.30
2022-09-27T23:48:58.896Z,9.30
2022-09-27T23:51:27.211Z,9.20
2022-09-27T23:53:58.048Z,9.20
2022-09-27T23:56:26.961Z,9.10
2022-09-27T23:58:55.098Z,9.20
